Time;durP1;ratioP1;P1;durP2;ratioP2;P2;SDS_P1;SDS_P2;PMS_P1;PMS_P2;Temp;Humidity;BMP_temperature;BMP_pressure;BME280_temperature;BME280_humidity;BME280_pressure;Samples;Min_cycle;Max_cycle;Signal;HPM_P1;HPM_P2
2022/05/14 00:01:44;;;;;;;;;;;26.40;34.80;;;;;;5117090;28;1841;-46
2022/05/14 00:04:12;;;;;;;;;;;26.40;34.80;;;;;;5119911;28;975;-45
2022/05/14 00:06:39;;;;;;;;;;;26.50;34.80;;;;;;5120275;28;998;-47
2022/05/14 00:09:06;;;;;;;;;;;26.40;34.80;;;;;;5118172;28;952;-45
2022/05/14 00:14:18;;;;;;;;;;;26.50;34.90;;;;;;5119805;28;969;-45
2022/05/14 00:16:44;;;;;;;;;;;26.40;35.00;;;;;;5120364;28;1003;-45
2022/05/14 00:19:12;;;;;;;;;;;26.40;35.10;;;;;;5120461;28;1898;-45
2022/05/14 00:21:40;;;;;;;;;;;26.40;35.00;;;;;;5120454;28;1849;-45
2022/05/14 00:24:07;;;;;;;;;;;26.40;35.10;;;;;;5119640;28;978;-45
2022/05/14 00:26:35;;;;;;;;;;;26.40;35.10;;;;;;5120537;28;964;-45
2022/05/14 00:29:02;;;;;;;;;;;26.40;35.10;;;;;;5120281;28;992;-45
2022/05/14 00:31:29;;;;;;;;;;;26.40;35.10;;;;;;5119892;28;988;-45
2022/05/14 00:33:56;;;;;;;;;;;26.50;35.00;;;;;;5120611;28;1032;-45
2022/05/14 00:36:24;;;;;;;;;;;26.50;35.10;;;;;;5120056;28;996;-45
2022/05/14 00:38:51;;;;;;;;;;;26.50;35.10;;;;;;5119676;28;1901;-45
2022/05/14 00:41:18;;;;;;;;;;;26.50;35.10;;;;;;5120858;28;1024;-45
2022/05/14 00:43:49;;;;;;;;;;;26.50;35.10;;;;;;5120387;28;941;-46
2022/05/14 00:46:18;;;;;;;;;;;26.40;35.30;;;;;;5120909;28;1003;-45
2022/05/14 00:48:45;;;;;;;;;;;26.50;35.30;;;;;;5120538;28;979;-45
2022/05/14 00:51:14;;;;;;;;;;;26.40;35.30;;;;;;5120335;28;952;-45
2022/05/14 00:53:45;;;;;;;;;;;26.50;35.40;;;;;;5119714;28;1035;-45
2022/05/14 00:56:13;;;;;;;;;;;26.50;35.10;;;;;;5119164;28;1008;-45
2022/05/14 00:58:43;;;;;;;;;;;26.50;35.30;;;;;;5118875;28;1898;-46
2022/05/14 01:01:09;;;;;;;;;;;26.50;35.30;;;;;;5119329;28;1853;-45
2022/05/14 01:03:36;;;;;;;;;;;26.50;35.20;;;;;;5119679;28;948;-46
2022/05/14 01:06:04;;;;;;;;;;;26.50;35.30;;;;;;5119221;28;964;-45
2022/05/14 01:08:31;;;;;;;;;;;26.50;35.30;;;;;;5119349;28;949;-46
2022/05/14 01:10:59;;;;;;;;;;;26.50;35.30;;;;;;5118643;28;944;-46
2022/05/14 01:13:26;;;;;;;;;;;26.50;35.30;;;;;;5118401;28;1019;-46
2022/05/14 01:15:54;;;;;;;;;;;26.50;35.30;;;;;;5120006;28;965;-45
2022/05/14 01:18:22;;;;;;;;;;;26.50;35.30;;;;;;5120269;28;1972;-46
2022/05/14 01:20:52;;;;;;;;;;;26.60;35.30;;;;;;5118674;28;1017;-45
2022/05/14 01:23:23;;;;;;;;;;;26.50;35.30;;;;;;5119327;28;1002;-46
2022/05/14 01:28:44;;;;;;;;;;;26.50;35.30;;;;;;5118901;28;848;-46
2022/05/14 01:31:11;;;;;;;;;;;26.60;35.30;;;;;;5118815;28;1008;-46
2022/05/14 01:33:38;;;;;;;;;;;26.50;35.30;;;;;;5118805;28;987;-46
2022/05/14 01:36:05;;;;;;;;;;;26.60;35.30;;;;;;5119025;28;1003;-46
2022/05/14 01:38:33;;;;;;;;;;;26.60;35.40;;;;;;5119361;28;1960;-46
2022/05/14 01:41:01;;;;;;;;;;;26.60;35.40;;;;;;5120001;28;965;-45
2022/05/14 01:43:28;;;;;;;;;;;26.60;35.40;;;;;;5119119;28;999;-46
2022/05/14 01:45:54;;;;;;;;;;;26.60;35.40;;;;;;5119571;28;937;-45
2022/05/14 01:48:21;;;;;;;;;;;26.60;35.40;;;;;;5119196;28;1019;-46
2022/05/14 01:50:47;;;;;;;;;;;26.60;35.40;;;;;;5119474;28;979;-46
2022/05/14 01:53:15;;;;;;;;;;;26.60;35.40;;;;;;5119309;28;1008;-45
2022/05/14 01:55:41;;;;;;;;;;;26.60;35.40;;;;;;5118519;28;988;-45
2022/05/14 02:00:50;;;;;;;;;;;26.60;35.40;;;;;;5117233;28;1389;-46
2022/05/14 02:03:17;;;;;;;;;;;26.60;35.50;;;;;;5118669;28;1008;-45
2022/05/14 02:05:44;;;;;;;;;;;26.60;35.40;;;;;;5118621;28;964;-46
2022/05/14 02:08:11;;;;;;;;;;;26.60;35.40;;;;;;5119384;28;945;-45
2022/05/14 02:10:38;;;;;;;;;;;26.60;35.40;;;;;;5119538;28;1051;-46
2022/05/14 02:13:05;;;;;;;;;;;26.60;35.40;;;;;;5119229;28;1031;-45
2022/05/14 02:15:33;;;;;;;;;;;26.60;35.40;;;;;;5118537;28;998;-46
2022/05/14 02:18:00;;;;;;;;;;;26.60;35.50;;;;;;5118296;28;1814;-45
2022/05/14 02:20:26;;;;;;;;;;;26.60;35.40;;;;;;5118610;28;1968;-44
2022/05/14 02:22:53;;;;;;;;;;;26.60;35.40;;;;;;5118503;28;965;-45
2022/05/14 02:25:20;;;;;;;;;;;26.60;35.40;;;;;;5117580;28;971;-46
2022/05/14 02:27:46;;;;;;;;;;;26.60;35.40;;;;;;5119046;27;1008;-46
2022/05/14 02:30:14;;;;;;;;;;;26.60;35.40;;;;;;5118382;28;1016;-45
2022/05/14 02:32:42;;;;;;;;;;;26.60;35.40;;;;;;5118309;28;947;-46
2022/05/14 02:35:09;;;;;;;;;;;26.60;35.40;;;;;;5118668;28;992;-46
2022/05/14 02:37:36;;;;;;;;;;;26.70;35.30;;;;;;5118837;28;1089;-46
2022/05/14 02:40:03;;;;;;;;;;;26.60;35.40;;;;;;5118992;28;1979;-46
2022/05/14 02:42:30;;;;;;;;;;;26.60;35.40;;;;;;5119129;28;999;-49
2022/05/14 02:45:15;;;;;;;;;;;26.60;35.40;;;;;;5120263;28;1040;-46
2022/05/14 02:47:43;;;;;;;;;;;26.60;35.50;;;;;;5119041;28;994;-47
2022/05/14 02:50:11;;;;;;;;;;;26.60;35.40;;;;;;5119800;28;997;-46
2022/05/14 02:52:38;;;;;;;;;;;26.60;35.40;;;;;;5119120;28;929;-45
2022/05/14 02:55:06;;;;;;;;;;;26.60;35.40;;;;;;5118551;28;1149;-45
2022/05/14 02:57:33;;;;;;;;;;;26.60;35.40;;;;;;5118886;28;1169;-46
2022/05/14 02:59:59;;;;;;;;;;;26.60;35.40;;;;;;5118791;28;1901;-46
2022/05/14 03:02:26;;;;;;;;;;;26.60;35.40;;;;;;5118174;28;949;-46
2022/05/14 03:04:54;;;;;;;;;;;26.60;35.40;;;;;;5118177;28;1025;-46
2022/05/14 03:07:20;;;;;;;;;;;26.70;35.40;;;;;;5118764;28;987;-46
2022/05/14 03:09:47;;;;;;;;;;;26.70;35.40;;;;;;5118677;28;1109;-45
2022/05/14 03:12:15;;;;;;;;;;;26.60;35.30;;;;;;5119043;28;1023;-45
2022/05/14 03:14:42;;;;;;;;;;;26.60;35.40;;;;;;5119219;28;1016;-45
2022/05/14 03:17:09;;;;;;;;;;;26.60;35.40;;;;;;5118468;28;979;-45
2022/05/14 03:19:36;;;;;;;;;;;26.70;35.40;;;;;;5118524;28;1993;-46
2022/05/14 03:22:04;;;;;;;;;;;26.70;35.30;;;;;;5119501;28;986;-45
2022/05/14 03:24:31;;;;;;;;;;;26.70;35.40;;;;;;5117320;28;1919;-46
2022/05/14 03:26:59;;;;;;;;;;;26.70;35.30;;;;;;5117985;28;956;-46
2022/05/14 03:29:26;;;;;;;;;;;26.70;35.30;;;;;;5117540;28;991;-45
2022/05/14 03:31:52;;;;;;;;;;;26.70;35.40;;;;;;5118233;28;1782;-46
2022/05/14 03:34:19;;;;;;;;;;;26.70;35.20;;;;;;5117762;28;1001;-46
2022/05/14 03:36:46;;;;;;;;;;;26.70;35.30;;;;;;5119916;28;909;-45
2022/05/14 03:39:14;;;;;;;;;;;26.70;35.30;;;;;;5122838;28;1886;-45
2022/05/14 03:41:40;;;;;;;;;;;26.70;35.40;;;;;;5123098;28;972;-45
2022/05/14 03:44:07;;;;;;;;;;;26.70;35.40;;;;;;5122465;28;1017;-45
2022/05/14 03:46:34;;;;;;;;;;;26.70;35.40;;;;;;5122732;28;980;-47
2022/05/14 03:49:01;;;;;;;;;;;26.70;35.40;;;;;;5122638;28;992;-45
2022/05/14 03:51:29;;;;;;;;;;;26.70;35.30;;;;;;5122039;28;1019;-46
2022/05/14 03:53:57;;;;;;;;;;;26.70;35.30;;;;;;5121955;28;1105;-44
2022/05/14 03:56:25;;;;;;;;;;;26.80;35.10;;;;;;5121541;28;1019;-45
2022/05/14 03:58:52;;;;;;;;;;;26.80;35.20;;;;;;5121807;28;1299;-43
2022/05/14 04:01:19;;;;;;;;;;;26.80;35.10;;;;;;5121907;28;1906;-44
2022/05/14 04:03:46;;;;;;;;;;;26.80;35.20;;;;;;5121536;28;1027;-45
2022/05/14 04:06:13;;;;;;;;;;;26.80;35.20;;;;;;5120830;28;996;-44
2022/05/14 04:08:40;;;;;;;;;;;26.80;35.20;;;;;;5121863;28;1067;-45
2022/05/14 04:11:07;;;;;;;;;;;26.80;35.30;;;;;;5122021;28;872;-44
2022/05/14 04:13:36;;;;;;;;;;;26.70;35.20;;;;;;5121698;28;956;-44
2022/05/14 04:16:03;;;;;;;;;;;26.70;35.20;;;;;;5121650;28;952;-44
2022/05/14 04:18:30;;;;;;;;;;;26.70;35.20;;;;;;5121666;28;1114;-44
2022/05/14 04:20:58;;;;;;;;;;;26.80;35.10;;;;;;5121325;28;1905;-44
2022/05/14 04:23:25;;;;;;;;;;;26.80;35.10;;;;;;5121691;28;1007;-44
2022/05/14 04:25:53;;;;;;;;;;;26.80;35.10;;;;;;5121376;28;953;-45
2022/05/14 04:28:20;;;;;;;;;;;26.80;35.20;;;;;;5121397;28;964;-45
2022/05/14 04:30:48;;;;;;;;;;;26.80;35.20;;;;;;5121283;28;1023;-45
2022/05/14 04:33:15;;;;;;;;;;;26.80;35.30;;;;;;5121073;28;991;-45
2022/05/14 04:35:42;;;;;;;;;;;26.80;35.10;;;;;;5120165;28;956;-45
2022/05/14 04:38:09;;;;;;;;;;;26.80;35.20;;;;;;5120184;28;952;-45
2022/05/14 04:40:36;;;;;;;;;;;26.80;35.20;;;;;;5119267;28;1901;-45
2022/05/14 04:43:05;;;;;;;;;;;26.80;35.20;;;;;;5120294;28;913;-45
2022/05/14 04:45:32;;;;;;;;;;;26.80;35.30;;;;;;5120761;28;980;-45
2022/05/14 04:48:00;;;;;;;;;;;26.70;35.20;;;;;;5120833;28;1580;-44
2022/05/14 04:50:27;;;;;;;;;;;26.70;35.20;;;;;;5121003;28;977;-45
2022/05/14 04:52:53;;;;;;;;;;;26.80;35.30;;;;;;5120480;28;1017;-45
2022/05/14 04:55:20;;;;;;;;;;;26.80;35.20;;;;;;5120169;28;987;-45
2022/05/14 04:57:47;;;;;;;;;;;26.80;35.30;;;;;;5120433;28;1188;-46
2022/05/14 05:00:14;;;;;;;;;;;26.80;35.30;;;;;;5120380;28;1905;-45
2022/05/14 05:05:27;;;;;;;;;;;26.80;35.30;;;;;;5119420;28;818;-45
2022/05/14 05:07:54;;;;;;;;;;;26.80;35.30;;;;;;5119422;28;1004;-46
2022/05/14 05:10:21;;;;;;;;;;;26.80;35.30;;;;;;5119802;28;873;-45
2022/05/14 05:12:48;;;;;;;;;;;26.80;35.30;;;;;;5119954;28;1038;-45
2022/05/14 05:15:15;;;;;;;;;;;26.80;35.30;;;;;;5118598;28;1019;-45
2022/05/14 05:17:42;;;;;;;;;;;26.80;35.10;;;;;;5118795;28;893;-45
2022/05/14 05:20:10;;;;;;;;;;;26.80;35.10;;;;;;5119688;28;1996;-44
2022/05/14 05:22:38;;;;;;;;;;;26.80;35.30;;;;;;5119404;28;972;-45
2022/05/14 05:25:06;;;;;;;;;;;26.70;35.30;;;;;;5119928;28;1098;-45
2022/05/14 05:27:33;;;;;;;;;;;26.80;35.20;;;;;;5119747;28;945;-44
2022/05/14 05:29:59;;;;;;;;;;;26.80;35.20;;;;;;5119515;28;971;-45
2022/05/14 05:32:26;;;;;;;;;;;26.80;35.30;;;;;;5118397;28;984;-45
2022/05/14 05:34:53;;;;;;;;;;;26.80;35.40;;;;;;5118152;28;1016;-46
2022/05/14 05:37:20;;;;;;;;;;;26.80;35.50;;;;;;5117422;28;1001;-45
2022/05/14 05:39:48;;;;;;;;;;;26.70;35.40;;;;;;5119072;28;1898;-46
2022/05/14 05:42:14;;;;;;;;;;;26.80;35.40;;;;;;5118817;28;957;-45
2022/05/14 05:44:41;;;;;;;;;;;26.80;35.50;;;;;;5119679;28;1043;-46
2022/05/14 05:47:08;;;;;;;;;;;26.80;35.40;;;;;;5119522;28;1019;-44
2022/05/14 05:49:35;;;;;;;;;;;26.80;35.50;;;;;;5119418;28;1008;-45
2022/05/14 05:52:02;;;;;;;;;;;26.80;35.50;;;;;;5118301;28;945;-45
2022/05/14 05:57:14;;;;;;;;;;;26.80;35.40;;;;;;5119903;28;1228;-45
2022/05/14 05:59:41;;;;;;;;;;;26.80;35.50;;;;;;5117496;28;1984;-45
2022/05/14 06:02:08;;;;;;;;;;;26.80;35.50;;;;;;5118979;28;859;-45
2022/05/14 06:04:35;;;;;;;;;;;26.80;35.50;;;;;;5119524;28;1031;-45
2022/05/14 06:07:02;;;;;;;;;;;26.80;35.50;;;;;;5119297;28;921;-45
2022/05/14 06:09:29;;;;;;;;;;;26.80;35.50;;;;;;5118745;28;948;-45
2022/05/14 06:11:58;;;;;;;;;;;26.80;35.50;;;;;;5118346;28;936;-46
2022/05/14 06:14:26;;;;;;;;;;;26.80;35.60;;;;;;5117826;28;952;-44
2022/05/14 06:16:53;;;;;;;;;;;26.80;35.60;;;;;;5118721;28;950;-45
2022/05/14 06:19:20;;;;;;;;;;;26.80;35.50;;;;;;5117553;28;1070;-46
2022/05/14 06:21:47;;;;;;;;;;;26.80;35.60;;;;;;5117443;28;1910;-45
2022/05/14 06:24:14;;;;;;;;;;;26.80;35.60;;;;;;5116925;28;1006;-46
2022/05/14 06:26:40;;;;;;;;;;;26.80;35.70;;;;;;5116583;28;962;-46
2022/05/14 06:29:07;;;;;;;;;;;26.80;35.70;;;;;;5117582;28;945;-45
2022/05/14 06:31:35;;;;;;;;;;;26.80;35.70;;;;;;5117914;28;956;-46
2022/05/14 06:34:02;;;;;;;;;;;26.80;35.70;;;;;;5118333;28;1010;-42
2022/05/14 06:36:29;;;;;;;;;;;26.80;35.70;;;;;;5117346;28;1011;-44
2022/05/14 06:38:56;;;;;;;;;;;26.80;35.70;;;;;;5117641;28;879;-45
2022/05/14 06:41:23;;;;;;;;;;;26.80;35.70;;;;;;5116392;28;1965;-44
2022/05/14 06:43:51;;;;;;;;;;;26.80;35.70;;;;;;5116349;28;960;-44
2022/05/14 06:46:17;;;;;;;;;;;26.80;35.70;;;;;;5117365;28;1000;-45
2022/05/14 06:48:45;;;;;;;;;;;26.80;35.60;;;;;;5117386;28;976;-44
2022/05/14 06:51:18;;;;;;;;;;;26.80;35.80;;;;;;5116398;28;952;-45
2022/05/14 06:53:45;;;;;;;;;;;26.80;35.80;;;;;;5115302;28;1805;-45
2022/05/14 06:56:12;;;;;;;;;;;26.90;35.70;;;;;;5115295;28;889;-45
2022/05/14 06:58:40;;;;;;;;;;;26.90;35.70;;;;;;5114662;28;1026;-44
2022/05/14 07:01:07;;;;;;;;;;;26.90;35.60;;;;;;5114522;28;1905;-45
2022/05/14 07:06:40;;;;;;;;;;;26.90;35.60;;;;;;5114949;28;646;-45
2022/05/14 07:09:08;;;;;;;;;;;26.90;35.80;;;;;;5115728;28;1002;-46
2022/05/14 07:11:37;;;;;;;;;;;26.90;35.70;;;;;;5115012;28;888;-46
2022/05/14 07:14:04;;;;;;;;;;;26.90;35.60;;;;;;5114987;28;1011;-45
2022/05/14 07:16:31;;;;;;;;;;;26.90;35.70;;;;;;5115085;28;1802;-45
2022/05/14 07:18:58;;;;;;;;;;;27.00;35.60;;;;;;5113933;28;1092;-45
2022/05/14 07:21:26;;;;;;;;;;;26.90;35.60;;;;;;5114366;28;1878;-45
2022/05/14 07:23:53;;;;;;;;;;;26.90;35.70;;;;;;5114376;28;1000;-44
2022/05/14 07:26:20;;;;;;;;;;;27.00;35.70;;;;;;5114185;28;932;-44
2022/05/14 07:28:46;;;;;;;;;;;27.00;35.60;;;;;;5114532;28;996;-44
2022/05/14 07:31:13;;;;;;;;;;;26.90;35.60;;;;;;5114029;28;987;-44
2022/05/14 07:33:40;;;;;;;;;;;26.90;35.60;;;;;;5114071;28;948;-44
2022/05/14 07:36:11;;;;;;;;;;;26.90;35.70;;;;;;5113781;28;903;-44
2022/05/14 07:38:40;;;;;;;;;;;27.00;35.70;;;;;;5113870;28;1106;-44
2022/05/14 07:41:07;;;;;;;;;;;27.00;35.60;;;;;;5113970;28;1906;-44
2022/05/14 07:43:36;;;;;;;;;;;27.00;35.60;;;;;;5113253;28;956;-44
2022/05/14 07:46:04;;;;;;;;;;;27.00;35.70;;;;;;5113703;28;952;-44
2022/05/14 07:48:33;;;;;;;;;;;27.00;35.80;;;;;;5113632;28;1804;-44
2022/05/14 07:51:00;;;;;;;;;;;27.00;35.70;;;;;;5112764;28;984;-43
2022/05/14 07:53:30;;;;;;;;;;;27.00;35.70;;;;;;5113607;28;1005;-44
2022/05/14 07:55:59;;;;;;;;;;;27.10;35.60;;;;;;5113060;28;957;-43
2022/05/14 07:58:25;;;;;;;;;;;27.10;35.60;;;;;;5112577;28;1134;-43
2022/05/14 08:00:52;;;;;;;;;;;27.00;35.70;;;;;;5113060;28;1977;-44
2022/05/14 08:03:23;;;;;;;;;;;27.00;35.70;;;;;;5113227;28;1315;-44
2022/05/14 08:05:49;;;;;;;;;;;27.00;35.70;;;;;;5114656;28;975;-44
2022/05/14 08:08:16;;;;;;;;;;;26.90;35.80;;;;;;5113028;28;937;-44
2022/05/14 08:10:43;;;;;;;;;;;26.90;35.70;;;;;;5113392;28;937;-44
2022/05/14 08:13:15;;;;;;;;;;;26.90;35.80;;;;;;5109962;28;970;-43
2022/05/14 08:15:41;;;;;;;;;;;27.00;35.70;;;;;;5113861;28;960;-44
2022/05/14 08:18:08;;;;;;;;;;;27.00;35.70;;;;;;5113391;28;921;-44
2022/05/14 08:20:35;;;;;;;;;;;27.00;35.70;;;;;;5113438;28;1902;-44
2022/05/14 08:25:46;;;;;;;;;;;27.00;35.70;;;;;;5116328;28;717;-44
2022/05/14 08:28:14;;;;;;;;;;;27.00;35.70;;;;;;5115897;28;989;-46
2022/05/14 08:30:41;;;;;;;;;;;27.00;35.90;;;;;;5117727;28;929;-45
2022/05/14 08:33:07;;;;;;;;;;;26.90;35.80;;;;;;5117709;28;968;-44
2022/05/14 08:35:34;;;;;;;;;;;27.00;35.90;;;;;;5116810;28;1011;-44
2022/05/14 08:38:01;;;;;;;;;;;27.00;35.80;;;;;;5115864;28;940;-44
2022/05/14 08:40:30;;;;;;;;;;;27.00;35.70;;;;;;5117331;28;964;-44
2022/05/14 08:42:58;;;;;;;;;;;27.00;35.70;;;;;;5115994;28;980;-44
2022/05/14 08:45:27;;;;;;;;;;;27.00;35.70;;;;;;5116302;28;1003;-44
2022/05/14 08:47:56;;;;;;;;;;;27.00;35.80;;;;;;5115492;28;978;-45
2022/05/14 08:50:24;;;;;;;;;;;26.90;35.80;;;;;;5115337;28;948;-45
2022/05/14 08:52:51;;;;;;;;;;;27.00;35.90;;;;;;5114144;28;945;-45
2022/05/14 08:55:19;;;;;;;;;;;27.00;35.90;;;;;;5115969;28;1870;-45
2022/05/14 08:57:50;;;;;;;;;;;26.90;35.90;;;;;;5117187;28;1283;-45
2022/05/14 09:00:17;;;;;;;;;;;27.00;35.90;;;;;;5115503;28;1012;-45
2022/05/14 09:02:46;;;;;;;;;;;27.00;35.90;;;;;;5115390;28;1988;-45
2022/05/14 09:05:15;;;;;;;;;;;27.00;35.90;;;;;;5115164;28;941;-45
2022/05/14 09:07:43;;;;;;;;;;;27.00;35.90;;;;;;5115613;28;1000;-45
2022/05/14 09:10:19;;;;;;;;;;;27.00;35.90;;;;;;5116101;28;996;-45
2022/05/14 09:12:50;;;;;;;;;;;27.00;35.90;;;;;;5115860;28;956;-46
2022/05/14 09:15:17;;;;;;;;;;;27.00;35.90;;;;;;5115113;28;1007;-46
2022/05/14 09:17:44;;;;;;;;;;;27.00;36.00;;;;;;5114760;28;897;-45
2022/05/14 09:20:23;;;;;;;;;;;27.00;36.00;;;;;;5115466;28;996;-46
2022/05/14 09:22:54;;;;;;;;;;;27.00;36.00;;;;;;5116431;28;2328;-45
2022/05/14 09:25:22;;;;;;;;;;;27.00;36.00;;;;;;5117148;28;972;-46
2022/05/14 09:27:52;;;;;;;;;;;27.00;36.00;;;;;;5116057;28;921;-45
2022/05/14 09:30:24;;;;;;;;;;;27.00;36.00;;;;;;5114604;28;848;-46
2022/05/14 09:32:51;;;;;;;;;;;27.00;36.00;;;;;;5114049;28;999;-45
2022/05/14 09:35:21;;;;;;;;;;;27.00;35.90;;;;;;5113587;28;1176;-45
2022/05/14 09:37:47;;;;;;;;;;;27.00;35.90;;;;;;5114266;28;1429;-43
2022/05/14 09:40:21;;;;;;;;;;;27.10;36.00;;;;;;5116369;28;988;-43
2022/05/14 09:42:49;;;;;;;;;;;27.00;36.00;;;;;;5115508;28;1913;-46
2022/05/14 09:45:20;;;;;;;;;;;27.00;36.00;;;;;;5114845;28;1015;-47
2022/05/14 09:47:47;;;;;;;;;;;27.10;36.10;;;;;;5114094;28;1039;-46
2022/05/14 09:50:17;;;;;;;;;;;27.10;36.10;;;;;;5113755;28;948;-46
2022/05/14 09:52:54;;;;;;;;;;;27.20;36.00;;;;;;5114789;28;971;-46
2022/05/14 09:55:21;;;;;;;;;;;27.20;35.70;;;;;;5115314;28;1376;-46
2022/05/14 09:57:48;;;;;;;;;;;27.20;35.90;;;;;;5116244;28;1055;-43
2022/05/14 10:00:16;;;;;;;;;;;27.10;36.10;;;;;;5114734;28;981;-42
2022/05/14 10:02:48;;;;;;;;;;;27.00;36.30;;;;;;5113945;28;1988;-42
2022/05/14 10:05:20;;;;;;;;;;;27.00;36.30;;;;;;5112167;28;1012;-42
2022/05/14 10:07:51;;;;;;;;;;;27.00;36.50;;;;;;5113145;28;1049;-42
2022/05/14 10:10:24;;;;;;;;;;;27.00;36.40;;;;;;5111492;28;963;-42
2022/05/14 10:12:53;;;;;;;;;;;27.00;36.50;;;;;;5114544;28;968;-42
2022/05/14 10:15:28;;;;;;;;;;;27.00;36.40;;;;;;5114997;28;968;-43
2022/05/14 10:17:59;;;;;;;;;;;27.00;36.40;;;;;;5115374;28;1035;-41
2022/05/14 10:20:36;;;;;;;;;;;27.10;36.20;;;;;;5115657;28;940;-41
2022/05/14 10:28:51;;;;;;;;;;;27.20;36.30;;;;;;5113672;28;895;-40
2022/05/14 10:31:21;;;;;;;;;;;27.10;36.30;;;;;;5114247;28;937;-39
2022/05/14 10:33:49;;;;;;;;;;;27.10;36.30;;;;;;5114210;28;1000;-39
2022/05/14 10:36:20;;;;;;;;;;;27.10;36.40;;;;;;5112616;28;1026;-40
2022/05/14 10:38:50;;;;;;;;;;;27.20;36.50;;;;;;5113547;28;951;-39
2022/05/14 10:41:24;;;;;;;;;;;27.20;36.50;;;;;;5113665;28;1909;-39
2022/05/14 10:43:56;;;;;;;;;;;27.20;36.60;;;;;;5113392;28;1019;-40
2022/05/14 10:46:25;;;;;;;;;;;27.20;36.50;;;;;;5113547;28;1017;-40
2022/05/14 10:48:55;;;;;;;;;;;27.20;36.60;;;;;;5113935;28;1195;-40
2022/05/14 10:51:24;;;;;;;;;;;27.30;36.50;;;;;;5113850;28;944;-41
2022/05/14 10:53:53;;;;;;;;;;;27.20;36.40;;;;;;5113567;28;941;-40
2022/05/14 10:56:23;;;;;;;;;;;27.20;36.60;;;;;;5123103;27;1412;-39
2022/05/14 10:58:57;;;;;;;;;;;27.20;36.70;;;;;;5134442;27;1250;-39
2022/05/14 11:01:30;;;;;;;;;;;27.20;36.60;;;;;;5135028;27;1905;-39
2022/05/14 11:03:58;;;;;;;;;;;27.20;36.70;;;;;;5134721;27;1326;-39
2022/05/14 11:06:29;;;;;;;;;;;27.30;36.70;;;;;;5134137;27;1588;-37
2022/05/14 11:08:57;;;;;;;;;;;27.40;37.30;;;;;;5133861;27;913;-38
2022/05/14 11:11:26;;;;;;;;;;;27.60;36.80;;;;;;5133601;27;952;-37
2022/05/14 11:14:02;;;;;;;;;;;27.60;36.60;;;;;;5132798;27;1009;-37
2022/05/14 11:16:39;;;;;;;;;;;27.50;36.60;;;;;;5133261;27;883;-37
2022/05/14 11:19:07;;;;;;;;;;;27.60;36.60;;;;;;5135165;27;928;-35
2022/05/14 11:21:36;;;;;;;;;;;27.50;36.50;;;;;;5136409;27;1900;-37
2022/05/14 11:24:04;;;;;;;;;;;27.40;36.50;;;;;;5135241;27;1026;-39
2022/05/14 11:26:31;;;;;;;;;;;27.40;36.60;;;;;;5135910;27;968;-40
2022/05/14 11:29:00;;;;;;;;;;;27.40;36.70;;;;;;5133655;27;1607;-37
2022/05/14 11:31:29;;;;;;;;;;;27.40;36.80;;;;;;5132555;27;999;-37
2022/05/14 11:33:57;;;;;;;;;;;27.40;36.60;;;;;;5133300;27;1042;-38
2022/05/14 11:36:26;;;;;;;;;;;27.40;36.60;;;;;;5134288;27;969;-37
2022/05/14 11:39:06;;;;;;;;;;;27.40;36.70;;;;;;5134152;27;904;-37
2022/05/14 11:41:35;;;;;;;;;;;27.40;36.60;;;;;;5133786;27;1909;-37
2022/05/14 11:44:04;;;;;;;;;;;27.40;36.70;;;;;;5134480;27;940;-37
2022/05/14 11:46:33;;;;;;;;;;;27.40;36.80;;;;;;5135095;27;937;-35
2022/05/14 11:49:03;;;;;;;;;;;27.40;36.90;;;;;;5133703;27;1307;-35
2022/05/14 11:51:38;;;;;;;;;;;27.30;36.80;;;;;;5134703;27;972;-36
2022/05/14 11:54:08;;;;;;;;;;;27.40;36.80;;;;;;5134013;27;1007;-38
2022/05/14 11:56:42;;;;;;;;;;;27.40;36.80;;;;;;5136617;27;975;-39
2022/05/14 11:59:13;;;;;;;;;;;27.40;36.80;;;;;;5137908;27;1152;-35
2022/05/14 12:01:41;;;;;;;;;;;27.40;36.80;;;;;;5141176;27;1914;-36
2022/05/14 12:04:10;;;;;;;;;;;27.40;37.00;;;;;;5137774;27;887;-37
2022/05/14 12:06:52;;;;;;;;;;;27.40;37.10;;;;;;5137767;27;927;-37
2022/05/14 12:09:28;;;;;;;;;;;27.40;37.20;;;;;;5137294;27;1002;-38
2022/05/14 12:12:01;;;;;;;;;;;27.40;37.10;;;;;;5136081;27;980;-38
2022/05/14 12:14:29;;;;;;;;;;;27.40;37.20;;;;;;5136333;27;1023;-34
2022/05/14 12:16:57;;;;;;;;;;;27.40;37.30;;;;;;5137778;27;979;-39
2022/05/14 12:19:26;;;;;;;;;;;27.40;37.30;;;;;;5137324;27;890;-39
2022/05/14 12:21:54;;;;;;;;;;;27.40;37.40;;;;;;5137209;27;1906;-38
2022/05/14 12:24:22;;;;;;;;;;;27.40;37.40;;;;;;5137172;27;1198;-39
2022/05/14 12:26:49;;;;;;;;;;;27.40;37.50;;;;;;5137017;27;976;-38
2022/05/14 12:29:20;;;;;;;;;;;27.50;37.70;;;;;;5137217;27;983;-37
2022/05/14 12:34:41;;;;;;;;;;;27.50;37.60;;;;;;5136459;27;890;-37
2022/05/14 12:37:16;;;;;;;;;;;27.50;37.50;;;;;;5136233;27;1027;-38
2022/05/14 12:39:43;;;;;;;;;;;27.50;37.50;;;;;;5137117;27;984;-38
2022/05/14 12:42:11;;;;;;;;;;;27.50;37.60;;;;;;5136511;27;1901;-38
2022/05/14 12:44:42;;;;;;;;;;;27.50;37.60;;;;;;5136727;27;1027;-39
2022/05/14 12:47:09;;;;;;;;;;;27.50;37.60;;;;;;5136188;27;905;-42
2022/05/14 12:49:37;;;;;;;;;;;27.60;37.80;;;;;;5139864;27;999;-46
2022/05/14 12:52:07;;;;;;;;;;;27.80;37.80;;;;;;5144169;27;996;-44
2022/05/14 12:54:34;;;;;;;;;;;27.90;37.30;;;;;;5152153;27;1081;-44
2022/05/14 12:57:02;;;;;;;;;;;27.80;37.40;;;;;;5139592;27;1142;-47
2022/05/14 12:59:29;;;;;;;;;;;27.90;37.30;;;;;;5136907;27;1011;-44
2022/05/14 13:02:00;;;;;;;;;;;27.70;37.40;;;;;;5136162;27;1917;-43
2022/05/14 13:04:29;;;;;;;;;;;27.70;37.30;;;;;;5136054;27;1011;-44
2022/05/14 13:06:59;;;;;;;;;;;27.80;37.30;;;;;;5135879;27;980;-44
2022/05/14 13:09:27;;;;;;;;;;;27.70;37.40;;;;;;5134147;27;1092;-44
2022/05/14 13:11:54;;;;;;;;;;;27.70;37.40;;;;;;5136398;27;940;-44
2022/05/14 13:14:23;;;;;;;;;;;27.70;37.20;;;;;;5134822;27;984;-45
2022/05/14 13:17:01;;;;;;;;;;;27.70;37.30;;;;;;5136107;27;1002;-44
2022/05/14 13:19:35;;;;;;;;;;;27.70;37.20;;;;;;5135667;27;992;-43
2022/05/14 13:22:02;;;;;;;;;;;27.70;37.70;;;;;;5136854;27;1910;-43
2022/05/14 13:24:33;;;;;;;;;;;27.80;37.70;;;;;;5137169;27;903;-43
2022/05/14 13:27:01;;;;;;;;;;;27.90;37.80;;;;;;5137523;27;1527;-43
2022/05/14 13:29:29;;;;;;;;;;;27.90;37.50;;;;;;5139276;27;1012;-43
2022/05/14 13:32:08;;;;;;;;;;;27.90;37.20;;;;;;5138495;27;1016;-44
2022/05/14 13:37:24;;;;;;;;;;;28.00;36.70;;;;;;5138989;27;593;-42
2022/05/14 13:39:52;;;;;;;;;;;27.90;37.00;;;;;;5138538;27;1008;-42
2022/05/14 13:42:22;;;;;;;;;;;27.80;36.90;;;;;;5140021;27;1905;-42
2022/05/14 13:44:52;;;;;;;;;;;27.80;37.20;;;;;;5138625;27;1478;-44
2022/05/14 13:47:22;;;;;;;;;;;27.90;37.20;;;;;;5136656;27;983;-43
2022/05/14 13:49:52;;;;;;;;;;;27.90;37.10;;;;;;5135961;27;1111;-42
2022/05/14 13:52:24;;;;;;;;;;;27.90;37.00;;;;;;5136079;27;959;-42
2022/05/14 13:55:00;;;;;;;;;;;28.00;37.10;;;;;;5136403;27;976;-42
2022/05/14 13:57:27;;;;;;;;;;;28.00;36.80;;;;;;5134737;27;1287;-42
2022/05/14 14:00:02;;;;;;;;;;;28.00;36.90;;;;;;5122950;27;1203;-42
2022/05/14 14:02:30;;;;;;;;;;;28.00;36.80;;;;;;5129794;27;1914;-44
2022/05/14 14:04:58;;;;;;;;;;;28.10;36.60;;;;;;5117764;28;969;-43
2022/05/14 14:07:26;;;;;;;;;;;28.00;36.50;;;;;;5117370;28;979;-44
2022/05/14 14:09:53;;;;;;;;;;;28.00;36.60;;;;;;5118199;28;971;-42
2022/05/14 14:12:23;;;;;;;;;;;28.00;36.60;;;;;;5116432;28;928;-44
2022/05/14 14:14:50;;;;;;;;;;;28.00;36.70;;;;;;5117741;28;1020;-43
2022/05/14 14:17:17;;;;;;;;;;;28.00;36.60;;;;;;5117960;28;981;-41
2022/05/14 14:19:45;;;;;;;;;;;28.10;36.50;;;;;;5118028;28;934;-42
2022/05/14 14:22:13;;;;;;;;;;;28.00;36.10;;;;;;5118990;28;988;-43
2022/05/14 14:24:45;;;;;;;;;;;28.10;36.10;;;;;;5115630;28;1913;-43
2022/05/14 14:27:12;;;;;;;;;;;28.10;36.00;;;;;;5115094;28;1024;-42
2022/05/14 14:29:39;;;;;;;;;;;28.20;36.00;;;;;;5115689;28;1039;-42
2022/05/14 14:32:05;;;;;;;;;;;28.20;35.70;;;;;;5114199;28;968;-43
2022/05/14 14:34:32;;;;;;;;;;;28.20;35.90;;;;;;5115022;28;945;-42
2022/05/14 14:37:01;;;;;;;;;;;28.20;35.70;;;;;;5115429;28;1028;-42
2022/05/14 14:39:28;;;;;;;;;;;28.20;35.70;;;;;;5115522;28;987;-40
2022/05/14 14:41:55;;;;;;;;;;;28.30;35.60;;;;;;5114523;28;961;-40
2022/05/14 14:44:22;;;;;;;;;;;28.30;35.40;;;;;;5114417;28;1901;-40
2022/05/14 14:46:50;;;;;;;;;;;28.30;35.40;;;;;;5114820;28;943;-41
2022/05/14 14:49:17;;;;;;;;;;;28.30;35.00;;;;;;5113795;28;1024;-39
2022/05/14 14:51:44;;;;;;;;;;;28.30;34.90;;;;;;5113437;28;1008;-39
2022/05/14 14:54:12;;;;;;;;;;;28.30;34.90;;;;;;5114485;28;1199;-38
2022/05/14 14:56:38;;;;;;;;;;;28.20;34.60;;;;;;5114736;28;876;-39
2022/05/14 14:59:06;;;;;;;;;;;28.30;34.60;;;;;;5114051;28;1240;-39
2022/05/14 15:01:36;;;;;;;;;;;28.30;34.60;;;;;;5112899;28;1018;-39
2022/05/14 15:04:06;;;;;;;;;;;28.30;34.50;;;;;;5113229;28;1902;-38
2022/05/14 15:06:34;;;;;;;;;;;28.30;34.70;;;;;;5113029;28;903;-39
2022/05/14 15:09:01;;;;;;;;;;;28.30;34.70;;;;;;5114055;28;981;-39
2022/05/14 15:11:30;;;;;;;;;;;28.30;34.80;;;;;;5112861;28;1019;-39
2022/05/14 15:14:01;;;;;;;;;;;28.30;35.00;;;;;;5112525;28;929;-40